createdAt,value
2023-09-27T00:04:54.064Z,101233.34
2023-09-27T00:09:57.166Z,101233.77
2023-09-27T00:15:03.070Z,101228.17
2023-09-27T00:20:10.854Z,101221.75
2023-09-27T00:25:15.490Z,101222.41
2023-09-27T00:30:18.479Z,101213.19
2023-09-27T00:35:23.775Z,101209.80
2023-09-27T00:40:27.922Z,101211.41
2023-09-27T00:45:31.187Z,101210.20
2023-09-27T00:50:34.046Z,101206.55
2023-09-27T00:55:37.216Z,101204.01
2023-09-27T01:00:40.462Z,101209.38
2023-09-27T01:05:43.697Z,101206.77
2023-09-27T01:10:47.455Z,101204.96
2023-09-27T01:15:50.530Z,101195.73
2023-09-27T01:20:53.358Z,101194.06
2023-09-27T01:26:01.139Z,101192.84
2023-09-27T01:31:04.148Z,101193.66
2023-09-27T01:36:07.930Z,101194.90
2023-09-27T01:41:10.706Z,101192.91
2023-09-27T01:46:13.515Z,101193.77
2023-09-27T01:51:16.432Z,101191.25
2023-09-27T01:56:19.239Z,101191.80
2023-09-27T02:01:22.106Z,101192.00
2023-09-27T02:06:25.042Z,101191.94
2023-09-27T02:11:27.976Z,101189.46
2023-09-27T02:16:32.924Z,101186.91
2023-09-27T02:21:35.666Z,101183.95
2023-09-27T02:26:38.588Z,101180.54
2023-09-27T02:31:41.379Z,101182.34
2023-09-27T02:36:44.194Z,101182.58
2023-09-27T02:41:46.897Z,101181.42
2023-09-27T02:46:50.054Z,101182.80
2023-09-27T02:51:55.352Z,101181.00
2023-09-27T02:56:58.208Z,101173.00
2023-09-27T03:02:00.989Z,101174.19
2023-09-27T03:07:04.294Z,101172.41
2023-09-27T03:12:08.054Z,101177.41
2023-09-27T03:17:11.402Z,101177.66
2023-09-27T03:22:14.302Z,101176.23
2023-09-27T03:27:18.154Z,101173.03
2023-09-27T03:32:21.310Z,101171.71
2023-09-27T03:37:24.687Z,101168.45
2023-09-27T03:42:28.101Z,101166.32
2023-09-27T03:47:31.080Z,101165.51
2023-09-27T03:52:34.104Z,101164.45
2023-09-27T03:57:36.902Z,101163.67
2023-09-27T04:02:39.767Z,101165.34
2023-09-27T04:07:42.942Z,101160.27
2023-09-27T04:12:45.758Z,101161.00
2023-09-27T04:17:48.519Z,101166.94
2023-09-27T04:22:51.416Z,101167.31
2023-09-27T04:27:54.835Z,101167.33
2023-09-27T04:32:57.615Z,101173.06
2023-09-27T04:38:00.608Z,101178.89
2023-09-27T04:43:03.670Z,101183.73
2023-09-27T04:48:07.310Z,101185.22
2023-09-27T04:53:11.050Z,101182.42
2023-09-27T04:58:13.808Z,101184.48
2023-09-27T05:03:16.632Z,101182.54
2023-09-27T05:08:19.646Z,101183.15
2023-09-27T05:13:22.954Z,101176.48
2023-09-27T05:18:25.902Z,101181.63
2023-09-27T05:23:28.925Z,101186.39
2023-09-27T05:28:33.621Z,101186.09
2023-09-27T05:33:36.492Z,101189.64
2023-09-27T05:38:40.014Z,101191.31
2023-09-27T05:43:42.989Z,101188.25
2023-09-27T05:48:45.957Z,101186.04
2023-09-27T05:53:53.688Z,101189.23
2023-09-27T05:59:00.858Z,101182.88
2023-09-27T06:04:04.996Z,101180.55
2023-09-27T06:09:11.364Z,101183.95
2023-09-27T06:14:15.370Z,101189.23
2023-09-27T06:19:18.122Z,101186.06
2023-09-27T06:24:20.901Z,101194.61
2023-09-27T06:29:23.712Z,101195.77
2023-09-27T06:34:27.509Z,101199.11
2023-09-27T06:39:30.394Z,101202.83
2023-09-27T06:44:35.353Z,101203.77
2023-09-27T06:49:38.386Z,101208.33
2023-09-27T06:54:42.063Z,101215.64
2023-09-27T06:59:45.258Z,101216.38
2023-09-27T07:04:48.977Z,101220.20
2023-09-27T07:09:52.141Z,101225.75
2023-09-27T07:14:54.866Z,101229.56
2023-09-27T07:19:57.976Z,101228.01
2023-09-27T07:25:02.930Z,101231.92
2023-09-27T07:30:06.689Z,101239.81
2023-09-27T07:35:11.658Z,101244.30
2023-09-27T07:40:15.889Z,101244.36
2023-09-27T07:45:23.584Z,101246.46
2023-09-27T07:50:34.932Z,101245.85
2023-09-27T07:55:44.639Z,101240.00
2023-09-27T08:00:47.750Z,101229.54
2023-09-27T08:05:50.807Z,101224.41
2023-09-27T08:10:54.211Z,101220.60
2023-09-27T08:15:57.183Z,101219.61
2023-09-27T08:21:04.949Z,101224.91
2023-09-27T08:26:13.773Z,101226.77
2023-09-27T08:31:19.236Z,101225.41
2023-09-27T08:36:22.178Z,101228.70
2023-09-27T08:41:31.146Z,101235.19
2023-09-27T08:46:37.428Z,101234.13
2023-09-27T08:51:43.708Z,101232.16
2023-09-27T08:56:55.236Z,101233.11
2023-09-27T09:01:58.911Z,101236.06
2023-09-27T09:07:04.603Z,101221.48
2023-09-27T09:12:11.099Z,101211.64
2023-09-27T09:17:19.346Z,101210.68
2023-09-27T09:22:31.896Z,101209.20
2023-09-27T09:27:35.577Z,101210.33
2023-09-27T09:32:52.972Z,101208.46
2023-09-27T09:37:56.698Z,101203.02
2023-09-27T09:43:01.268Z,101198.48
2023-09-27T09:48:05.080Z,101199.70
2023-09-27T09:53:11.403Z,101205.45
2023-09-27T09:58:37.173Z,101202.88
2023-09-27T10:03:48.984Z,101201.88
2023-09-27T10:08:53.254Z,101200.61
2023-09-27T10:13:56.943Z,101196.20
2023-09-27T10:19:02.938Z,101192.63
2023-09-27T10:24:09.196Z,101183.88
2023-09-27T10:29:17.010Z,101186.61
2023-09-27T10:34:29.323Z,101176.48
2023-09-27T10:39:34.292Z,101166.61
2023-09-27T10:44:38.654Z,101178.33
2023-09-27T10:49:43.234Z,101173.69
2023-09-27T10:54:48.915Z,101162.49
2023-09-27T10:59:53.843Z,101162.19
2023-09-27T11:04:57.333Z,101158.23
2023-09-27T11:10:02.751Z,101154.30
2023-09-27T11:15:06.976Z,101154.38
2023-09-27T11:20:14.165Z,101139.95
2023-09-27T11:25:28.052Z,101139.42
2023-09-27T11:30:33.688Z,101137.27
2023-09-27T11:35:51.677Z,101133.64
2023-09-27T11:40:55.397Z,101132.21
2023-09-27T11:46:00.863Z,101131.05
2023-09-27T11:51:06.478Z,101129.56
2023-09-27T11:56:12.003Z,101119.84
2023-09-27T12:01:15.928Z,101120.39
2023-09-27T12:06:20.629Z,101116.41
2023-09-27T12:11:26.846Z,101116.61
2023-09-27T12:16:33.497Z,101115.39
2023-09-27T12:21:37.337Z,101116.60
2023-09-27T12:26:42.558Z,101113.02
2023-09-27T12:31:45.550Z,101103.70
2023-09-27T12:36:50.547Z,101102.46
2023-09-27T12:41:53.903Z,101100.86
2023-09-27T12:46:56.907Z,101102.05
2023-09-27T12:51:59.878Z,101102.40
2023-09-27T12:57:02.632Z,101097.95
2023-09-27T13:02:05.440Z,101093.63
2023-09-27T13:07:08.747Z,101089.52
2023-09-27T13:12:11.621Z,101090.42
2023-09-27T13:17:14.366Z,101082.60
2023-09-27T13:22:17.360Z,101078.30
2023-09-27T13:27:20.339Z,101076.73
2023-09-27T14:57:42.040Z,101030.95
2023-09-27T15:02:44.837Z,101033.94
2023-09-27T15:07:47.737Z,101033.38
2023-09-27T15:12:50.808Z,101024.91
2023-09-27T15:17:53.702Z,101023.65
2023-09-27T15:22:56.574Z,101028.38
2023-09-27T15:28:00.849Z,101029.73
2023-09-27T15:33:03.900Z,101034.94
2023-09-27T15:38:06.996Z,101030.40
2023-09-27T15:43:10.821Z,101037.33
2023-09-27T15:48:13.693Z,101036.58
2023-09-27T15:53:16.779Z,101038.91
2023-09-27T15:58:19.727Z,101038.90
2023-09-27T16:03:22.928Z,101041.23
2023-09-27T16:08:28.410Z,101041.73
2023-09-27T16:13:31.553Z,101045.53
2023-09-27T16:25:12.926Z,101047.55
2023-09-27T16:30:34.601Z,101048.77
2023-09-27T16:35:38.620Z,101046.48
2023-09-27T16:40:41.794Z,101056.39
2023-09-27T16:45:45.050Z,101059.26
2023-09-27T16:50:48.137Z,101058.72
2023-09-27T16:55:51.304Z,101057.76
2023-09-27T17:00:56.737Z,101060.09
2023-09-27T17:05:59.829Z,101060.30
2023-09-27T17:11:02.952Z,101061.94
2023-09-27T17:16:08.634Z,101064.77
2023-09-27T17:21:11.701Z,101061.77
2023-09-27T17:26:14.808Z,101064.66
2023-09-27T17:31:17.987Z,101067.84
2023-09-27T17:36:21.028Z,101064.63
2023-09-27T17:41:24.033Z,101068.14
2023-09-27T17:46:28.927Z,101066.67
2023-09-27T17:51:32.988Z,101070.20
2023-09-27T17:56:36.159Z,101062.98
2023-09-27T18:01:40.206Z,101055.58
2023-09-27T18:06:43.427Z,101064.79
2023-09-27T18:11:46.352Z,101067.30
2023-09-27T18:16:49.287Z,101071.06
2023-09-27T18:21:52.148Z,101074.17
2023-09-27T18:26:55.744Z,101070.41
2023-09-27T18:32:01.035Z,101074.76
2023-09-27T18:37:04.404Z,101073.34
2023-09-27T18:42:07.274Z,101075.07
2023-09-27T18:47:10.469Z,101075.42
2023-09-27T18:52:14.378Z,101076.92
2023-09-27T18:57:17.107Z,101078.16
2023-09-27T19:02:19.852Z,101077.09
2023-09-27T19:07:23.675Z,101070.73
2023-09-27T19:12:26.371Z,101068.20
2023-09-27T19:17:29.093Z,101067.50
2023-09-27T19:22:33.414Z,101069.13
2023-09-27T19:27:36.181Z,101065.96
2023-09-27T19:32:39.318Z,101067.05
2023-09-27T19:37:42.755Z,101065.60
2023-09-27T19:42:47.943Z,101064.02
2023-09-27T19:47:51.373Z,101063.50
2023-09-27T19:52:54.397Z,101062.25
2023-09-27T19:57:57.478Z,101059.39
2023-09-27T20:03:00.311Z,101055.11
2023-09-27T20:08:03.431Z,101056.67
2023-09-27T20:13:06.312Z,101047.57
2023-09-27T20:18:09.137Z,101043.45
2023-09-27T20:23:11.904Z,101035.46
2023-09-27T20:28:14.790Z,101041.04
2023-09-27T20:33:18.345Z,101039.98
2023-09-27T20:38:21.050Z,101039.34
2023-09-27T20:43:23.851Z,101034.56
2023-09-27T20:48:26.763Z,101030.59
2023-09-27T20:53:29.517Z,101028.53
2023-09-27T20:58:32.930Z,101025.38
2023-09-27T21:03:36.683Z,101027.63
2023-09-27T21:08:39.573Z,101020.39
2023-09-27T21:13:42.309Z,101020.60
2023-09-27T21:18:45.166Z,101018.63
2023-09-27T21:23:47.968Z,101015.16
2023-09-27T21:28:50.966Z,101015.48
2023-09-27T21:33:54.050Z,101011.06
2023-09-27T21:38:57.041Z,101008.11
2023-09-27T21:44:00.092Z,101005.55
2023-09-27T21:49:02.907Z,101005.27
2023-09-27T21:54:05.776Z,101008.89
2023-09-27T21:59:09.511Z,101009.03
2023-09-27T22:04:12.378Z,101004.57
2023-09-27T22:09:15.225Z,100998.67
2023-09-27T22:14:21.039Z,100995.45
2023-09-27T22:19:29.037Z,100997.48
2023-09-27T22:24:32.284Z,100996.78
2023-09-27T22:29:35.081Z,100995.63
2023-09-27T22:34:38.875Z,100997.59
2023-09-27T22:39:41.851Z,100998.99
2023-09-27T22:44:45.025Z,100994.98
2023-09-27T22:49:47.801Z,100996.93
2023-09-27T22:54:50.677Z,101003.35
2023-09-27T22:59:54.927Z,100997.66
2023-09-27T23:04:58.047Z,100991.59
2023-09-27T23:10:04.606Z,100998.20
2023-09-27T23:15:10.221Z,100995.05
2023-09-27T23:20:13.107Z,100993.02
2023-09-27T23:25:34.813Z,100992.20
2023-09-27T23:30:51.080Z,100992.38
2023-09-27T23:35:54.247Z,100993.35
2023-09-27T23:41:00.574Z,100992.95
2023-09-27T23:46:07.095Z,100996.40
2023-09-27T23:51:09.911Z,100994.86
2023-09-27T23:56:12.743Z,100993.05
